KGPZ

Details ICAO KGPZ (GPZ)
Name GRAND RAPIDS ITASCA CO GORDON NEWSTROM
Region United States
Timezone America/Chicago (UTC-6.0)
Plans Departing 3
Arriving 10
Stats Elevation 1,355 ft / 413 m (AMSL)
Location 47.212522° -93.509130°
Runways 3
Magnetic Variation 0.151° E
Sunrise 2017-12-11 13:52:16 UTC / 2017-12-11 07:52:16 Local
Sunset 2017-12-11 22:25:27 UTC / 2017-12-11 16:25:27 Local
Advertisement - Login to hide

Runways

ID Width Length Bearing (true) Bearing (mag) Surface Threshold Offset Overrun Length
04 150 ft / 46 m 2,965 ft / 904 m 45.61° 45.46° Grass 0 ft / 0 m 0 ft / 0 m
10 150 ft / 46 m 1,446 ft / 441 m 104.45° 104.30° Grass 0 ft / 0 m 0 ft / 0 m
16 100 ft / 30 m 5,757 ft / 1,755 m 165.66° 165.51° Asphalt 423 ft / 129 m 582 ft / 177 m
22 150 ft / 46 m 2,965 ft / 904 m 225.61° 225.46° Grass 0 ft / 0 m 0 ft / 0 m
28 150 ft / 46 m 1,446 ft / 441 m 284.45° 284.30° Grass 0 ft / 0 m 0 ft / 0 m
34 100 ft / 30 m 5,757 ft / 1,755 m 345.67° 345.52° Asphalt 0 ft / 0 m 250 ft / 76 m

Map

Weather


0- 5 10 15 20 25 30 35+ Temperature / ° C

Clouds and Precipitation
Forecast for 2017-12-11 18:00 UTC. Updated 2 hours ago

Ground ~20,000 ft ~40,000 ft Winds

METAR

KGPZ 111456Z AUTO 33012KT 10SM OVC012 M04/M05 A2976 RMK AO2 SNE34 SLP102 P0000 60002 T10391050 53018 FZRANO

TAF

Not found

Frequencies

Unicom 122.80 MHz CTAF/UNICOM
Warning: Do not use this data for real-world aviation or navigation. No guarantee of current accuracy is given.